sensor_id;sensor_type;location;lat;lon;timestamp;temperature;humidity
6355;DHT22;3210;48.708;9.030;2023-02-28T00:01:07;-2.60;1.00
6355;DHT22;3210;48.708;9.030;2023-02-28T00:03:34;-2.60;1.00
6355;DHT22;3210;48.708;9.030;2023-02-28T00:06:02;-2.60;1.00
6355;DHT22;3210;48.708;9.030;2023-02-28T00:08:29;-2.60;1.00
6355;DHT22;3210;48.708;9.030;2023-02-28T00:10:55;-2.60;1.00
6355;DHT22;3210;48.708;9.030;2023-02-28T00:13:22;-2.70;1.00
6355;DHT22;3210;48.708;9.030;2023-02-28T00:16:00;-2.80;1.00
6355;DHT22;3210;48.708;9.030;2023-02-28T00:18:26;-2.80;1.00
6355;DHT22;3210;48.708;9.030;2023-02-28T00:20:53;-2.70;1.00
6355;DHT22;3210;48.708;9.030;2023-02-28T00:23:20;-2.80;1.00
6355;DHT22;3210;48.708;9.030;2023-02-28T00:25:47;-2.80;1.00
6355;DHT22;3210;48.708;9.030;2023-02-28T00:28:13;-2.90;1.00
6355;DHT22;3210;48.708;9.030;2023-02-28T00:30:40;-2.90;1.00
6355;DHT22;3210;48.708;9.030;2023-02-28T00:33:08;-2.90;1.00
6355;DHT22;3210;48.708;9.030;2023-02-28T00:35:35;-3.00;1.00
6355;DHT22;3210;48.708;9.030;2023-02-28T00:38:02;-3.00;1.00
6355;DHT22;3210;48.708;9.030;2023-02-28T00:40:29;-3.00;1.00
6355;DHT22;3210;48.708;9.030;2023-02-28T00:42:56;-3.00;1.00
6355;DHT22;3210;48.708;9.030;2023-02-28T00:45:23;-3.00;1.00
6355;DHT22;3210;48.708;9.030;2023-02-28T00:47:49;-3.00;1.00
6355;DHT22;3210;48.708;9.030;2023-02-28T00:50:18;-3.00;1.00
6355;DHT22;3210;48.708;9.030;2023-02-28T00:52:45;-3.00;1.00
6355;DHT22;3210;48.708;9.030;2023-02-28T00:55:12;-3.10;1.00
6355;DHT22;3210;48.708;9.030;2023-02-28T00:57:39;-3.10;1.00
6355;DHT22;3210;48.708;9.030;2023-02-28T01:00:07;-3.10;1.00
6355;DHT22;3210;48.708;9.030;2023-02-28T01:02:34;-3.20;1.00
6355;DHT22;3210;48.708;9.030;2023-02-28T01:05:01;-3.20;1.00
6355;DHT22;3210;48.708;9.030;2023-02-28T01:07:30;-3.20;1.00
6355;DHT22;3210;48.708;9.030;2023-02-28T01:09:57;-3.20;1.00
6355;DHT22;3210;48.708;9.030;2023-02-28T01:12:23;-3.20;1.00
6355;DHT22;3210;48.708;9.030;2023-02-28T01:14:50;-3.10;1.00
6355;DHT22;3210;48.708;9.030;2023-02-28T01:17:17;-3.20;1.00
6355;DHT22;3210;48.708;9.030;2023-02-28T01:19:43;-3.20;1.00
6355;DHT22;3210;48.708;9.030;2023-02-28T01:22:10;-3.10;1.00
6355;DHT22;3210;48.708;9.030;2023-02-28T01:24:38;-3.20;1.00
6355;DHT22;3210;48.708;9.030;2023-02-28T01:27:05;-3.20;1.00
6355;DHT22;3210;48.708;9.030;2023-02-28T01:29:32;-3.20;1.00
6355;DHT22;3210;48.708;9.030;2023-02-28T01:31:59;-3.10;1.00
6355;DHT22;3210;48.708;9.030;2023-02-28T01:34:25;-3.20;1.00
6355;DHT22;3210;48.708;9.030;2023-02-28T01:36:52;-3.30;1.00
6355;DHT22;3210;48.708;9.030;2023-02-28T01:39:19;-3.30;1.00
6355;DHT22;3210;48.708;9.030;2023-02-28T01:41:47;-3.20;1.00
6355;DHT22;3210;48.708;9.030;2023-02-28T01:47:18;-3.30;1.00
6355;DHT22;3210;48.708;9.030;2023-02-28T01:49:45;-3.30;1.00
6355;DHT22;3210;48.708;9.030;2023-02-28T01:52:12;-3.20;1.00
6355;DHT22;3210;48.708;9.030;2023-02-28T01:54:47;-3.30;1.00
6355;DHT22;3210;48.708;9.030;2023-02-28T01:57:20;-3.30;1.00
6355;DHT22;3210;48.708;9.030;2023-02-28T01:59:52;-3.30;1.00
6355;DHT22;3210;48.708;9.030;2023-02-28T02:02:21;-3.40;1.00
6355;DHT22;3210;48.708;9.030;2023-02-28T02:04:53;-3.40;1.00
6355;DHT22;3210;48.708;9.030;2023-02-28T02:07:22;-3.40;1.00
6355;DHT22;3210;48.708;9.030;2023-02-28T02:09:50;-3.40;1.00
6355;DHT22;3210;48.708;9.030;2023-02-28T02:12:26;-3.40;1.00
6355;DHT22;3210;48.708;9.030;2023-02-28T02:15:03;-3.40;1.00
6355;DHT22;3210;48.708;9.030;2023-02-28T02:17:38;-3.40;1.00
6355;DHT22;3210;48.708;9.030;2023-02-28T02:20:32;-3.40;1.00
6355;DHT22;3210;48.708;9.030;2023-02-28T02:23:29;-3.40;1.00
6355;DHT22;3210;48.708;9.030;2023-02-28T02:26:09;-3.40;1.00
6355;DHT22;3210;48.708;9.030;2023-02-28T02:29:10;-3.40;1.00
6355;DHT22;3210;48.708;9.030;2023-02-28T02:32:09;-3.40;1.00
6355;DHT22;3210;48.708;9.030;2023-02-28T02:34:50;-3.30;1.00
6355;DHT22;3210;48.708;9.030;2023-02-28T02:37:26;-3.40;1.00
6355;DHT22;3210;48.708;9.030;2023-02-28T02:39:59;-3.40;1.00
6355;DHT22;3210;48.708;9.030;2023-02-28T02:42:29;-3.40;1.00
6355;DHT22;3210;48.708;9.030;2023-02-28T02:45:02;-3.40;1.00
6355;DHT22;3210;48.708;9.030;2023-02-28T02:47:31;-3.40;1.00
6355;DHT22;3210;48.708;9.030;2023-02-28T02:50:04;-3.30;1.00
6355;DHT22;3210;48.708;9.030;2023-02-28T02:52:36;-3.30;1.00
6355;DHT22;3210;48.708;9.030;2023-02-28T02:55:07;-3.30;1.00
6355;DHT22;3210;48.708;9.030;2023-02-28T02:57:42;-3.30;1.00
6355;DHT22;3210;48.708;9.030;2023-02-28T03:00:12;-3.30;1.00
6355;DHT22;3210;48.708;9.030;2023-02-28T03:02:40;-3.20;1.00
6355;DHT22;3210;48.708;9.030;2023-02-28T03:05:17;-3.10;1.00
6355;DHT22;3210;48.708;9.030;2023-02-28T03:07:45;-3.20;1.00
6355;DHT22;3210;48.708;9.030;2023-02-28T03:10:34;-3.20;1.00
6355;DHT22;3210;48.708;9.030;2023-02-28T03:13:26;-3.20;1.00
6355;DHT22;3210;48.708;9.030;2023-02-28T03:16:08;-3.30;1.00
6355;DHT22;3210;48.708;9.030;2023-02-28T03:18:42;-3.20;1.00
6355;DHT22;3210;48.708;9.030;2023-02-28T03:21:16;-3.20;1.00
6355;DHT22;3210;48.708;9.030;2023-02-28T03:23:53;-3.10;1.00
6355;DHT22;3210;48.708;9.030;2023-02-28T03:26:26;-3.20;1.00
6355;DHT22;3210;48.708;9.030;2023-02-28T03:29:00;-3.10;1.00
6355;DHT22;3210;48.708;9.030;2023-02-28T03:31:31;-3.10;1.00
6355;DHT22;3210;48.708;9.030;2023-02-28T03:34:03;-3.10;1.00
6355;DHT22;3210;48.708;9.030;2023-02-28T03:36:35;-3.10;1.00
6355;DHT22;3210;48.708;9.030;2023-02-28T03:39:12;-3.20;1.00
6355;DHT22;3210;48.708;9.030;2023-02-28T03:41:43;-3.20;1.00
6355;DHT22;3210;48.708;9.030;2023-02-28T03:44:16;-3.20;1.00
6355;DHT22;3210;48.708;9.030;2023-02-28T03:46:48;-3.20;1.00
6355;DHT22;3210;48.708;9.030;2023-02-28T03:49:22;-3.20;1.00
6355;DHT22;3210;48.708;9.030;2023-02-28T03:51:52;-3.20;1.00
6355;DHT22;3210;48.708;9.030;2023-02-28T03:54:25;-3.20;1.00
6355;DHT22;3210;48.708;9.030;2023-02-28T03:56:57;-3.10;1.00
6355;DHT22;3210;48.708;9.030;2023-02-28T03:59:30;-3.20;1.00
6355;DHT22;3210;48.708;9.030;2023-02-28T04:01:59;-3.10;1.00
6355;DHT22;3210;48.708;9.030;2023-02-28T04:04:26;-3.10;1.00
6355;DHT22;3210;48.708;9.030;2023-02-28T04:07:02;-3.10;1.00
6355;DHT22;3210;48.708;9.030;2023-02-28T04:09:29;-3.20;1.00
6355;DHT22;3210;48.708;9.030;2023-02-28T04:11:56;-3.20;1.00
6355;DHT22;3210;48.708;9.030;2023-02-28T04:14:23;-3.20;1.00
6355;DHT22;3210;48.708;9.030;2023-02-28T04:16:50;-3.20;1.00
6355;DHT22;3210;48.708;9.030;2023-02-28T04:19:18;-3.20;1.00
6355;DHT22;3210;48.708;9.030;2023-02-28T04:21:45;-3.10;1.00
6355;DHT22;3210;48.708;9.030;2023-02-28T04:24:15;-3.10;1.00
6355;DHT22;3210;48.708;9.030;2023-02-28T04:26:44;-3.10;1.00
6355;DHT22;3210;48.708;9.030;2023-02-28T04:29:14;-3.10;1.00
6355;DHT22;3210;48.708;9.030;2023-02-28T04:31:41;-3.20;1.00
6355;DHT22;3210;48.708;9.030;2023-02-28T04:34:08;-3.10;1.00
6355;DHT22;3210;48.708;9.030;2023-02-28T04:36:34;-3.10;1.00
6355;DHT22;3210;48.708;9.030;2023-02-28T04:39:01;-3.10;1.00
6355;DHT22;3210;48.708;9.030;2023-02-28T04:41:30;-3.10;1.00
6355;DHT22;3210;48.708;9.030;2023-02-28T04:43:57;-3.00;1.00
6355;DHT22;3210;48.708;9.030;2023-02-28T04:46:24;-3.00;1.00
6355;DHT22;3210;48.708;9.030;2023-02-28T04:48:51;-2.90;1.00
6355;DHT22;3210;48.708;9.030;2023-02-28T04:51:19;-2.90;1.00
6355;DHT22;3210;48.708;9.030;2023-02-28T04:53:46;-3.00;1.00
6355;DHT22;3210;48.708;9.030;2023-02-28T04:56:15;-2.90;1.00
6355;DHT22;3210;48.708;9.030;2023-02-28T04:58:44;-2.80;1.00
6355;DHT22;3210;48.708;9.030;2023-02-28T05:01:20;-2.80;1.00
6355;DHT22;3210;48.708;9.030;2023-02-28T05:03:47;-2.90;1.00
6355;DHT22;3210;48.708;9.030;2023-02-28T05:06:15;-2.90;1.00
6355;DHT22;3210;48.708;9.030;2023-02-28T05:08:42;-2.90;1.00
6355;DHT22;3210;48.708;9.030;2023-02-28T05:11:14;-2.90;1.00
6355;DHT22;3210;48.708;9.030;2023-02-28T05:13:41;-2.80;1.00
6355;DHT22;3210;48.708;9.030;2023-02-28T05:16:09;-2.80;1.00
6355;DHT22;3210;48.708;9.030;2023-02-28T05:18:36;-2.80;1.00
6355;DHT22;3210;48.708;9.030;2023-02-28T05:21:03;-2.80;1.00
6355;DHT22;3210;48.708;9.030;2023-02-28T05:23:30;-2.80;1.00
6355;DHT22;3210;48.708;9.030;2023-02-28T05:25:57;-2.90;1.00
6355;DHT22;3210;48.708;9.030;2023-02-28T05:28:24;-2.80;1.00
6355;DHT22;3210;48.708;9.030;2023-02-28T05:30:51;-2.80;1.00
6355;DHT22;3210;48.708;9.030;2023-02-28T05:33:19;-2.80;1.00
6355;DHT22;3210;48.708;9.030;2023-02-28T05:35:46;-2.80;1.00
6355;DHT22;3210;48.708;9.030;2023-02-28T05:38:12;-2.80;1.00
6355;DHT22;3210;48.708;9.030;2023-02-28T05:40:39;-2.80;1.00
6355;DHT22;3210;48.708;9.030;2023-02-28T05:43:09;-2.70;1.00
6355;DHT22;3210;48.708;9.030;2023-02-28T05:45:37;-2.80;1.00
6355;DHT22;3210;48.708;9.030;2023-02-28T05:48:04;-2.80;1.00
6355;DHT22;3210;48.708;9.030;2023-02-28T05:50:32;-2.80;1.00
6355;DHT22;3210;48.708;9.030;2023-02-28T05:52:59;-2.80;1.00
6355;DHT22;3210;48.708;9.030;2023-02-28T05:55:26;-2.80;1.00
6355;DHT22;3210;48.708;9.030;2023-02-28T05:57:52;-2.80;1.00
6355;DHT22;3210;48.708;9.030;2023-02-28T06:00:20;-2.70;1.00
6355;DHT22;3210;48.708;9.030;2023-02-28T06:02:46;-2.70;1.00
6355;DHT22;3210;48.708;9.030;2023-02-28T06:05:15;-2.80;1.00
6355;DHT22;3210;48.708;9.030;2023-02-28T06:07:45;-2.70;1.00
6355;DHT22;3210;48.708;9.030;2023-02-28T06:10:11;-2.70;1.00
6355;DHT22;3210;48.708;9.030;2023-02-28T06:12:38;-2.70;1.00
6355;DHT22;3210;48.708;9.030;2023-02-28T06:15:07;-2.70;1.00
6355;DHT22;3210;48.708;9.030;2023-02-28T06:17:36;-2.70;1.00
6355;DHT22;3210;48.708;9.030;2023-02-28T06:20:04;-2.70;1.00
6355;DHT22;3210;48.708;9.030;2023-02-28T06:22:31;-2.70;1.00
6355;DHT22;3210;48.708;9.030;2023-02-28T06:24:59;-2.70;1.00
6355;DHT22;3210;48.708;9.030;2023-02-28T06:27:26;-2.80;1.00
6355;DHT22;3210;48.708;9.030;2023-02-28T06:29:54;-2.70;1.00
6355;DHT22;3210;48.708;9.030;2023-02-28T06:32:21;-2.70;1.00
6355;DHT22;3210;48.708;9.030;2023-02-28T06:34:48;-2.70;1.00
6355;DHT22;3210;48.708;9.030;2023-02-28T06:37:15;-2.60;1.00
6355;DHT22;3210;48.708;9.030;2023-02-28T06:39:42;-2.50;1.00
6355;DHT22;3210;48.708;9.030;2023-02-28T06:42:11;-2.60;1.00
6355;DHT22;3210;48.708;9.030;2023-02-28T06:44:38;-2.60;1.00
6355;DHT22;3210;48.708;9.030;2023-02-28T06:47:06;-2.60;1.00
6355;DHT22;3210;48.708;9.030;2023-02-28T06:49:34;-2.60;1.00
6355;DHT22;3210;48.708;9.030;2023-02-28T06:52:02;-2.60;1.00
6355;DHT22;3210;48.708;9.030;2023-02-28T06:54:29;-2.60;1.00
6355;DHT22;3210;48.708;9.030;2023-02-28T06:56:57;-2.60;1.00
6355;DHT22;3210;48.708;9.030;2023-02-28T06:59:25;-2.60;1.00
6355;DHT22;3210;48.708;9.030;2023-02-28T07:01:52;-2.50;1.00
6355;DHT22;3210;48.708;9.030;2023-02-28T07:04:20;-2.50;1.00
6355;DHT22;3210;48.708;9.030;2023-02-28T07:06:47;-2.50;1.00
6355;DHT22;3210;48.708;9.030;2023-02-28T07:09:14;-2.50;1.00
6355;DHT22;3210;48.708;9.030;2023-02-28T07:11:41;-2.50;1.00
6355;DHT22;3210;48.708;9.030;2023-02-28T07:14:08;-2.50;1.00
6355;DHT22;3210;48.708;9.030;2023-02-28T07:16:36;-2.40;1.00
6355;DHT22;3210;48.708;9.030;2023-02-28T07:19:03;-2.30;1.00
6355;DHT22;3210;48.708;9.030;2023-02-28T07:21:30;-2.30;1.00
6355;DHT22;3210;48.708;9.030;2023-02-28T07:23:56;-2.30;1.00
6355;DHT22;3210;48.708;9.030;2023-02-28T07:26:23;-2.30;1.00
6355;DHT22;3210;48.708;9.030;2023-02-28T07:28:50;-2.30;1.00
6355;DHT22;3210;48.708;9.030;2023-02-28T07:31:18;-2.30;1.00
6355;DHT22;3210;48.708;9.030;2023-02-28T07:33:46;-2.20;1.00
6355;DHT22;3210;48.708;9.030;2023-02-28T07:36:14;-2.20;1.00
6355;DHT22;3210;48.708;9.030;2023-02-28T07:38:45;-2.10;1.00
6355;DHT22;3210;48.708;9.030;2023-02-28T07:41:14;-2.20;1.00
6355;DHT22;3210;48.708;9.030;2023-02-28T07:43:41;-2.20;1.00
6355;DHT22;3210;48.708;9.030;2023-02-28T07:46:09;-2.10;1.00
6355;DHT22;3210;48.708;9.030;2023-02-28T07:48:36;-2.10;1.00
6355;DHT22;3210;48.708;9.030;2023-02-28T07:51:05;-2.10;1.00
6355;DHT22;3210;48.708;9.030;2023-02-28T07:53:32;-2.00;1.00
6355;DHT22;3210;48.708;9.030;2023-02-28T07:56:00;-2.00;1.00
6355;DHT22;3210;48.708;9.030;2023-02-28T07:58:28;-1.90;1.00
6355;DHT22;3210;48.708;9.030;2023-02-28T08:00:57;-1.90;1.00
6355;DHT22;3210;48.708;9.030;2023-02-28T08:03:31;-1.90;1.00
6355;DHT22;3210;48.708;9.030;2023-02-28T08:05:58;-1.90;1.00
6355;DHT22;3210;48.708;9.030;2023-02-28T08:08:26;-1.90;1.00
6355;DHT22;3210;48.708;9.030;2023-02-28T08:10:54;-1.70;1.00
6355;DHT22;3210;48.708;9.030;2023-02-28T08:13:21;-1.70;1.00
6355;DHT22;3210;48.708;9.030;2023-02-28T08:15:48;-1.70;1.00
6355;DHT22;3210;48.708;9.030;2023-02-28T08:18:14;-1.80;1.00
6355;DHT22;3210;48.708;9.030;2023-02-28T08:20:41;-1.80;1.00
6355;DHT22;3210;48.708;9.030;2023-02-28T08:23:08;-1.80;1.00
6355;DHT22;3210;48.708;9.030;2023-02-28T08:25:36;-1.70;1.00
6355;DHT22;3210;48.708;9.030;2023-02-28T08:28:03;-1.70;1.00
6355;DHT22;3210;48.708;9.030;2023-02-28T08:30:30;-1.70;1.00
6355;DHT22;3210;48.708;9.030;2023-02-28T08:32:56;-1.60;1.00
6355;DHT22;3210;48.708;9.030;2023-02-28T08:35:23;-1.60;1.00
6355;DHT22;3210;48.708;9.030;2023-02-28T08:37:50;-1.60;1.00
6355;DHT22;3210;48.708;9.030;2023-02-28T08:40:17;-1.50;1.00
6355;DHT22;3210;48.708;9.030;2023-02-28T08:42:46;-1.50;1.00
6355;DHT22;3210;48.708;9.030;2023-02-28T08:45:14;-1.60;1.00
6355;DHT22;3210;48.708;9.030;2023-02-28T08:47:41;-1.70;1.00
6355;DHT22;3210;48.708;9.030;2023-02-28T08:50:08;-1.60;1.00
6355;DHT22;3210;48.708;9.030;2023-02-28T08:52:35;-1.60;1.00
6355;DHT22;3210;48.708;9.030;2023-02-28T08:55:04;-1.60;1.00
6355;DHT22;3210;48.708;9.030;2023-02-28T08:57:31;-1.50;1.00
6355;DHT22;3210;48.708;9.030;2023-02-28T08:59:59;-1.60;1.00
6355;DHT22;3210;48.708;9.030;2023-02-28T09:02:29;-1.60;1.00
6355;DHT22;3210;48.708;9.030;2023-02-28T09:04:56;-1.60;1.00
6355;DHT22;3210;48.708;9.030;2023-02-28T09:07:23;-1.60;1.00
6355;DHT22;3210;48.708;9.030;2023-02-28T09:09:50;-1.60;1.00
6355;DHT22;3210;48.708;9.030;2023-02-28T09:12:24;-1.50;1.00
6355;DHT22;3210;48.708;9.030;2023-02-28T09:14:51;-1.40;1.00
6355;DHT22;3210;48.708;9.030;2023-02-28T09:17:20;-1.40;1.00
6355;DHT22;3210;48.708;9.030;2023-02-28T09:19:48;-1.20;1.00
6355;DHT22;3210;48.708;9.030;2023-02-28T09:22:15;-1.30;1.00
6355;DHT22;3210;48.708;9.030;2023-02-28T09:24:42;-1.30;1.00
6355;DHT22;3210;48.708;9.030;2023-02-28T09:27:10;-1.30;1.00
6355;DHT22;3210;48.708;9.030;2023-02-28T09:29:37;-1.40;1.00
6355;DHT22;3210;48.708;9.030;2023-02-28T09:32:04;-1.30;1.00
6355;DHT22;3210;48.708;9.030;2023-02-28T09:34:32;-1.20;1.00
6355;DHT22;3210;48.708;9.030;2023-02-28T09:36:59;-1.20;1.00
6355;DHT22;3210;48.708;9.030;2023-02-28T09:39:26;-1.10;1.00
6355;DHT22;3210;48.708;9.030;2023-02-28T09:41:54;-1.00;1.00
6355;DHT22;3210;48.708;9.030;2023-02-28T09:44:26;-1.10;1.00
6355;DHT22;3210;48.708;9.030;2023-02-28T09:46:58;-1.10;1.00
6355;DHT22;3210;48.708;9.030;2023-02-28T09:49:33;-1.00;1.00
6355;DHT22;3210;48.708;9.030;2023-02-28T09:52:02;-1.10;1.00
6355;DHT22;3210;48.708;9.030;2023-02-28T09:54:31;-1.00;1.00
6355;DHT22;3210;48.708;9.030;2023-02-28T09:57:01;-0.90;1.00
6355;DHT22;3210;48.708;9.030;2023-02-28T09:59:42;-0.70;1.00
6355;DHT22;3210;48.708;9.030;2023-02-28T10:02:21;-0.70;1.00
6355;DHT22;3210;48.708;9.030;2023-02-28T10:04:54;-0.70;1.00
6355;DHT22;3210;48.708;9.030;2023-02-28T10:07:35;-0.70;1.00
6355;DHT22;3210;48.708;9.030;2023-02-28T10:10:13;-0.50;1.00
6355;DHT22;3210;48.708;9.030;2023-02-28T10:12:44;-0.80;1.00
6355;DHT22;3210;48.708;9.030;2023-02-28T10:15:14;-0.70;1.00
6355;DHT22;3210;48.708;9.030;2023-02-28T10:17:43;-0.50;1.00
6355;DHT22;3210;48.708;9.030;2023-02-28T10:20:15;-0.60;1.00
6355;DHT22;3210;48.708;9.030;2023-02-28T10:22:52;-0.50;1.00
6355;DHT22;3210;48.708;9.030;2023-02-28T10:25:21;-0.40;1.00
6355;DHT22;3210;48.708;9.030;2023-02-28T10:27:49;-0.20;1.00
6355;DHT22;3210;48.708;9.030;2023-02-28T10:30:16;0.00;1.00
6355;DHT22;3210;48.708;9.030;2023-02-28T10:32:51;0.20;1.00
6355;DHT22;3210;48.708;9.030;2023-02-28T10:35:22;0.30;1.00
6355;DHT22;3210;48.708;9.030;2023-02-28T10:37:50;0.10;1.00
6355;DHT22;3210;48.708;9.030;2023-02-28T10:40:31;0.00;1.00
6355;DHT22;3210;48.708;9.030;2023-02-28T10:43:00;0.20;1.00
6355;DHT22;3210;48.708;9.030;2023-02-28T10:45:28;0.20;1.00
6355;DHT22;3210;48.708;9.030;2023-02-28T10:47:58;0.30;1.00
6355;DHT22;3210;48.708;9.030;2023-02-28T10:50:37;0.40;1.00
6355;DHT22;3210;48.708;9.030;2023-02-28T10:53:15;0.50;1.00
6355;DHT22;3210;48.708;9.030;2023-02-28T10:55:43;0.20;1.00
6355;DHT22;3210;48.708;9.030;2023-02-28T10:58:21;0.40;1.00
6355;DHT22;3210;48.708;9.030;2023-02-28T11:00:49;0.50;1.00
6355;DHT22;3210;48.708;9.030;2023-02-28T11:03:28;0.80;1.00
6355;DHT22;3210;48.708;9.030;2023-02-28T11:05:56;1.30;1.00
6355;DHT22;3210;48.708;9.030;2023-02-28T11:08:23;1.60;1.00
6355;DHT22;3210;48.708;9.030;2023-02-28T11:10:55;1.20;1.00
6355;DHT22;3210;48.708;9.030;2023-02-28T11:13:26;1.00;1.00
6355;DHT22;3210;48.708;9.030;2023-02-28T11:15:55;0.70;1.00
6355;DHT22;3210;48.708;9.030;2023-02-28T11:18:26;1.00;1.00
6355;DHT22;3210;48.708;9.030;2023-02-28T11:20:57;1.30;1.00
6355;DHT22;3210;48.708;9.030;2023-02-28T11:23:27;1.60;1.00
6355;DHT22;3210;48.708;9.030;2023-02-28T11:25:57;2.10;1.00
6355;DHT22;3210;48.708;9.030;2023-02-28T11:28:28;2.30;1.00
6355;DHT22;3210;48.708;9.030;2023-02-28T11:31:05;2.30;1.00
6355;DHT22;3210;48.708;9.030;2023-02-28T11:33:39;1.70;1.00
6355;DHT22;3210;48.708;9.030;2023-02-28T11:36:12;1.50;1.00
6355;DHT22;3210;48.708;9.030;2023-02-28T11:38:39;1.60;1.00
6355;DHT22;3210;48.708;9.030;2023-02-28T11:41:25;2.00;1.00
6355;DHT22;3210;48.708;9.030;2023-02-28T11:44:09;1.90;1.00
6355;DHT22;3210;48.708;9.030;2023-02-28T11:46:42;1.80;1.00
6355;DHT22;3210;48.708;9.030;2023-02-28T11:49:27;1.30;1.00
6355;DHT22;3210;48.708;9.030;2023-02-28T11:52:02;1.50;1.00
6355;DHT22;3210;48.708;9.030;2023-02-28T11:57:43;1.20;1.00
6355;DHT22;3210;48.708;9.030;2023-02-28T12:00:29;1.40;1.00
6355;DHT22;3210;48.708;9.030;2023-02-28T12:03:06;1.80;1.00
6355;DHT22;3210;48.708;9.030;2023-02-28T12:05:40;1.70;1.00
6355;DHT22;3210;48.708;9.030;2023-02-28T12:08:22;1.40;1.00
6355;DHT22;3210;48.708;9.030;2023-02-28T12:11:00;1.30;1.00
6355;DHT22;3210;48.708;9.030;2023-02-28T12:13:36;1.30;1.00
6355;DHT22;3210;48.708;9.030;2023-02-28T12:16:21;1.40;1.00
6355;DHT22;3210;48.708;9.030;2023-02-28T12:19:17;1.70;1.00
6355;DHT22;3210;48.708;9.030;2023-02-28T12:24:55;2.00;1.00
6355;DHT22;3210;48.708;9.030;2023-02-28T12:27:29;2.40;1.00
6355;DHT22;3210;48.708;9.030;2023-02-28T12:30:02;2.50;1.00
6355;DHT22;3210;48.708;9.030;2023-02-28T12:32:32;2.80;1.00
6355;DHT22;3210;48.708;9.030;2023-02-28T12:35:03;2.80;1.00
6355;DHT22;3210;48.708;9.030;2023-02-28T12:37:34;2.70;1.00
6355;DHT22;3210;48.708;9.030;2023-02-28T12:40:11;3.10;1.00
6355;DHT22;3210;48.708;9.030;2023-02-28T12:42:41;3.10;1.00
6355;DHT22;3210;48.708;9.030;2023-02-28T12:45:12;3.20;1.00
6355;DHT22;3210;48.708;9.030;2023-02-28T12:47:43;3.10;1.00
6355;DHT22;3210;48.708;9.030;2023-02-28T12:50:11;3.30;1.00
6355;DHT22;3210;48.708;9.030;2023-02-28T12:52:46;3.00;1.00
6355;DHT22;3210;48.708;9.030;2023-02-28T12:55:21;2.80;1.00
6355;DHT22;3210;48.708;9.030;2023-02-28T12:57:58;2.80;1.00
6355;DHT22;3210;48.708;9.030;2023-02-28T13:00:33;2.90;1.00
6355;DHT22;3210;48.708;9.030;2023-02-28T13:06:22;3.00;1.00
6355;DHT22;3210;48.708;9.030;2023-02-28T13:09:08;3.30;1.00
6355;DHT22;3210;48.708;9.030;2023-02-28T13:11:42;3.10;1.00
6355;DHT22;3210;48.708;9.030;2023-02-28T13:14:25;3.20;1.00
6355;DHT22;3210;48.708;9.030;2023-02-28T13:17:11;3.40;1.00
6355;DHT22;3210;48.708;9.030;2023-02-28T13:19:40;3.60;1.00
6355;DHT22;3210;48.708;9.030;2023-02-28T13:22:18;3.50;1.00
6355;DHT22;3210;48.708;9.030;2023-02-28T13:24:48;3.40;1.00
6355;DHT22;3210;48.708;9.030;2023-02-28T13:27:35;3.30;1.00
6355;DHT22;3210;48.708;9.030;2023-02-28T13:33:26;3.50;1.00
6355;DHT22;3210;48.708;9.030;2023-02-28T13:36:25;3.40;1.00
6355;DHT22;3210;48.708;9.030;2023-02-28T13:38:55;3.50;1.00
6355;DHT22;3210;48.708;9.030;2023-02-28T13:41:55;3.70;1.00
6355;DHT22;3210;48.708;9.030;2023-02-28T13:44:23;3.90;1.00
6355;DHT22;3210;48.708;9.030;2023-02-28T13:47:23;3.90;1.00
6355;DHT22;3210;48.708;9.030;2023-02-28T13:49:52;3.70;1.00
6355;DHT22;3210;48.708;9.030;2023-02-28T13:52:21;3.70;1.00
6355;DHT22;3210;48.708;9.030;2023-02-28T13:55:10;3.60;1.00
6355;DHT22;3210;48.708;9.030;2023-02-28T14:00:57;3.70;1.00
6355;DHT22;3210;48.708;9.030;2023-02-28T14:03:46;3.80;1.00
6355;DHT22;3210;48.708;9.030;2023-02-28T14:06:23;3.60;1.00
6355;DHT22;3210;48.708;9.030;2023-02-28T14:08:55;3.60;1.00
6355;DHT22;3210;48.708;9.030;2023-02-28T14:11:31;3.60;1.00
6355;DHT22;3210;48.708;9.030;2023-02-28T14:13:58;3.60;1.00
6355;DHT22;3210;48.708;9.030;2023-02-28T14:16:36;3.60;1.00
6355;DHT22;3210;48.708;9.030;2023-02-28T14:19:11;3.30;1.00
6355;DHT22;3210;48.708;9.030;2023-02-28T14:21:43;3.40;1.00
6355;DHT22;3210;48.708;9.030;2023-02-28T14:24:41;3.40;1.00
6355;DHT22;3210;48.708;9.030;2023-02-28T14:27:24;3.40;1.00
6355;DHT22;3210;48.708;9.030;2023-02-28T14:30:14;3.60;1.00
6355;DHT22;3210;48.708;9.030;2023-02-28T14:32:49;3.60;1.00
6355;DHT22;3210;48.708;9.030;2023-02-28T14:35:28;3.80;1.00
6355;DHT22;3210;48.708;9.030;2023-02-28T14:38:05;3.70;1.00
6355;DHT22;3210;48.708;9.030;2023-02-28T14:40:33;3.60;1.00
6355;DHT22;3210;48.708;9.030;2023-02-28T14:43:02;3.50;1.00
6355;DHT22;3210;48.708;9.030;2023-02-28T14:45:31;3.70;1.00
6355;DHT22;3210;48.708;9.030;2023-02-28T14:48:01;3.80;1.00
6355;DHT22;3210;48.708;9.030;2023-02-28T14:50:31;3.90;1.00
6355;DHT22;3210;48.708;9.030;2023-02-28T14:52:59;3.80;1.00
6355;DHT22;3210;48.708;9.030;2023-02-28T14:55:29;3.80;1.00
6355;DHT22;3210;48.708;9.030;2023-02-28T14:57:59;3.70;1.00
6355;DHT22;3210;48.708;9.030;2023-02-28T15:00:29;3.60;1.00
6355;DHT22;3210;48.708;9.030;2023-02-28T15:03:17;3.40;1.00
6355;DHT22;3210;48.708;9.030;2023-02-28T15:05:51;3.50;1.00
6355;DHT22;3210;48.708;9.030;2023-02-28T15:08:18;3.60;1.00
6355;DHT22;3210;48.708;9.030;2023-02-28T15:10:51;3.60;1.00
6355;DHT22;3210;48.708;9.030;2023-02-28T15:13:20;3.70;1.00
6355;DHT22;3210;48.708;9.030;2023-02-28T15:15:51;3.70;1.00
6355;DHT22;3210;48.708;9.030;2023-02-28T15:18:30;3.70;1.00
6355;DHT22;3210;48.708;9.030;2023-02-28T15:21:00;3.70;1.00
6355;DHT22;3210;48.708;9.030;2023-02-28T15:23:29;3.70;1.00
6355;DHT22;3210;48.708;9.030;2023-02-28T15:25:56;3.70;1.00
6355;DHT22;3210;48.708;9.030;2023-02-28T15:28:24;3.60;1.00
6355;DHT22;3210;48.708;9.030;2023-02-28T15:30:54;3.80;1.00
6355;DHT22;3210;48.708;9.030;2023-02-28T15:33:22;3.70;1.00
6355;DHT22;3210;48.708;9.030;2023-02-28T15:36:02;3.70;1.00
6355;DHT22;3210;48.708;9.030;2023-02-28T15:38:34;3.70;1.00
6355;DHT22;3210;48.708;9.030;2023-02-28T15:41:01;3.70;1.00
6355;DHT22;3210;48.708;9.030;2023-02-28T15:43:36;3.70;1.00
6355;DHT22;3210;48.708;9.030;2023-02-28T15:46:05;3.70;1.00
6355;DHT22;3210;48.708;9.030;2023-02-28T15:48:35;3.70;1.00
6355;DHT22;3210;48.708;9.030;2023-02-28T15:51:07;3.60;1.00
6355;DHT22;3210;48.708;9.030;2023-02-28T15:53:37;3.60;1.00
6355;DHT22;3210;48.708;9.030;2023-02-28T15:56:12;3.70;1.00
6355;DHT22;3210;48.708;9.030;2023-02-28T15:58:44;3.50;1.00
6355;DHT22;3210;48.708;9.030;2023-02-28T16:01:20;3.50;1.00
6355;DHT22;3210;48.708;9.030;2023-02-28T16:03:51;3.50;1.00
6355;DHT22;3210;48.708;9.030;2023-02-28T16:06:34;3.40;1.00
6355;DHT22;3210;48.708;9.030;2023-02-28T16:09:03;3.30;1.00
6355;DHT22;3210;48.708;9.030;2023-02-28T16:11:32;3.40;1.00
6355;DHT22;3210;48.708;9.030;2023-02-28T16:13:59;3.40;1.00
6355;DHT22;3210;48.708;9.030;2023-02-28T16:16:26;3.30;1.00
6355;DHT22;3210;48.708;9.030;2023-02-28T16:18:53;3.40;1.00
6355;DHT22;3210;48.708;9.030;2023-02-28T16:21:20;3.30;1.00
6355;DHT22;3210;48.708;9.030;2023-02-28T16:23:48;3.20;1.00
6355;DHT22;3210;48.708;9.030;2023-02-28T16:26:21;3.10;1.00
6355;DHT22;3210;48.708;9.030;2023-02-28T16:28:48;3.10;1.00
6355;DHT22;3210;48.708;9.030;2023-02-28T16:31:15;3.10;1.00
6355;DHT22;3210;48.708;9.030;2023-02-28T16:33:43;3.00;1.00
6355;DHT22;3210;48.708;9.030;2023-02-28T16:36:14;3.00;1.00
6355;DHT22;3210;48.708;9.030;2023-02-28T16:38:42;2.80;1.00
6355;DHT22;3210;48.708;9.030;2023-02-28T16:41:12;2.80;1.00
6355;DHT22;3210;48.708;9.030;2023-02-28T16:43:45;2.70;1.00
6355;DHT22;3210;48.708;9.030;2023-02-28T16:46:12;2.70;1.00
6355;DHT22;3210;48.708;9.030;2023-02-28T16:48:40;2.60;1.00
6355;DHT22;3210;48.708;9.030;2023-02-28T16:51:11;2.60;1.00
6355;DHT22;3210;48.708;9.030;2023-02-28T16:53:37;2.50;1.00
6355;DHT22;3210;48.708;9.030;2023-02-28T16:56:05;2.50;1.00
6355;DHT22;3210;48.708;9.030;2023-02-28T16:58:33;2.40;1.00
6355;DHT22;3210;48.708;9.030;2023-02-28T17:01:01;2.30;1.00
6355;DHT22;3210;48.708;9.030;2023-02-28T17:03:29;2.20;1.00
6355;DHT22;3210;48.708;9.030;2023-02-28T17:05:56;2.20;1.00
6355;DHT22;3210;48.708;9.030;2023-02-28T17:08:23;2.20;1.00